Time;durP1;ratioP1;P1;durP2;ratioP2;P2;SDS_P1;SDS_P2;PMS_P1;PMS_P2;Temp;Humidity;BMP_temperature;BMP_pressure;BME280_temperature;BME280_humidity;BME280_pressure;Samples;Min_cycle;Max_cycle;Signal;HPM_P1;HPM_P2
2024/01/12 00:00:20;;;;;;;;;35.50;30.75;;;;;-144.62;100.00;60556.56;5033625;28;46228;-74
2024/01/12 00:02:45;;;;;;;;;28.00;21.75;;;;;-144.62;100.00;60556.56;5035507;28;45323;-74
2024/01/12 00:05:11;;;;;;;;;31.25;26.00;;;;;-144.62;100.00;60556.56;5038281;28;45416;-74
2024/01/12 00:07:36;;;;;;;;;36.00;30.50;;;;;-144.62;100.00;60556.56;5039575;27;45303;-74
2024/01/12 00:10:01;;;;;;;;;34.50;27.25;;;;;-144.62;100.00;60556.56;5035303;28;46314;-74
2024/01/12 00:12:27;;;;;;;;;34.00;28.25;;;;;-144.62;100.00;60556.56;5039021;28;45503;-74
2024/01/12 00:14:52;;;;;;;;;30.50;24.75;;;;;-144.62;100.00;60556.56;5034884;28;45470;-74
2024/01/12 00:17:18;;;;;;;;;35.25;28.75;;;;;-144.62;100.00;60556.56;5039280;28;45636;-74
2024/01/12 00:19:44;;;;;;;;;35.25;32.25;;;;;-144.62;100.00;60556.56;5036636;28;45484;-74
2024/01/12 00:22:09;;;;;;;;;30.25;26.00;;;;;-144.62;100.00;60556.56;5036936;28;45434;-74
2024/01/12 00:24:34;;;;;;;;;33.75;28.00;;;;;-144.62;100.00;60556.56;5036605;28;47549;-74
2024/01/12 00:26:59;;;;;;;;;28.75;22.50;;;;;-144.62;100.00;60556.56;5037332;28;45363;-74
2024/01/12 00:29:25;;;;;;;;;37.50;22.75;;;;;-144.62;100.00;60556.56;5037963;27;53934;-74
2024/01/12 00:31:50;;;;;;;;;31.50;28.25;;;;;-144.62;100.00;60556.56;5038437;28;45368;-74
2024/01/12 00:34:15;;;;;;;;;44.75;31.00;;;;;-144.62;100.00;60556.56;5038487;28;45445;-74
2024/01/12 00:36:41;;;;;;;;;35.75;29.00;;;;;-144.62;100.00;60556.56;5030891;27;45701;-73
2024/01/12 00:39:06;;;;;;;;;35.50;28.75;;;;;-144.62;100.00;60556.56;5038216;28;50841;-74
2024/01/12 00:41:32;;;;;;;;;34.75;28.50;;;;;-144.62;100.00;60556.56;5034526;28;45432;-74
2024/01/12 00:43:57;;;;;;;;;35.50;29.50;;;;;-144.62;100.00;60556.56;5040698;28;45483;-74
2024/01/12 00:46:22;;;;;;;;;31.50;25.75;;;;;-144.62;100.00;60556.56;5038222;28;45455;-73
2024/01/12 00:48:50;;;;;;;;;40.00;32.50;;;;;-144.62;100.00;60556.56;5041433;28;46457;-73
2024/01/12 00:51:15;;;;;;;;;21.50;19.50;;;;;-144.62;100.00;60556.56;5037715;28;45338;-74
2024/01/12 00:53:40;;;;;;;;;35.25;30.75;;;;;-144.62;100.00;60556.56;5041822;28;45252;-74
2024/01/12 00:56:07;;;;;;;;;36.00;32.00;;;;;-144.62;100.00;60556.56;5039705;28;45393;-74
2024/01/12 00:58:33;;;;;;;;;32.50;27.75;;;;;-144.62;100.00;60556.56;5042092;27;45294;-74
2024/01/12 01:00:58;;;;;;;;;40.50;32.00;;;;;-144.62;100.00;60556.56;5036265;28;45516;-74
2024/01/12 01:03:23;;;;;;;;;32.75;25.75;;;;;-144.62;100.00;60556.56;5041738;28;45509;-73
2024/01/12 01:05:49;;;;;;;;;33.00;25.75;;;;;-144.62;100.00;60556.56;5035577;28;45616;-73
2024/01/12 01:08:14;;;;;;;;;32.50;30.25;;;;;-144.62;100.00;60556.56;5041169;27;45510;-73
2024/01/12 01:10:41;;;;;;;;;27.50;24.25;;;;;-144.62;100.00;60556.56;5037993;28;45436;-74
2024/01/12 01:13:07;;;;;;;;;36.00;29.50;;;;;-144.62;100.00;60556.56;5041819;28;45320;-73
2024/01/12 01:15:32;;;;;;;;;34.50;26.25;;;;;-144.62;100.00;60556.56;5039163;28;45331;-73
2024/01/12 01:17:58;;;;;;;;;31.75;24.50;;;;;-144.62;100.00;60556.56;5036696;28;46569;-74
2024/01/12 01:20:24;;;;;;;;;26.50;23.75;;;;;-144.62;100.00;60556.56;5038451;27;45445;-73
2024/01/12 01:22:49;;;;;;;;;37.00;29.00;;;;;-144.62;100.00;60556.56;5040559;28;45181;-73
2024/01/12 01:25:16;;;;;;;;;23.25;23.00;;;;;-144.62;100.00;60556.56;5040187;28;45275;-74
2024/01/12 01:27:41;;;;;;;;;33.50;25.75;;;;;-144.62;100.00;60556.56;5036290;28;47011;-74
2024/01/12 01:30:07;;;;;;;;;36.50;25.75;;;;;-144.62;100.00;60556.56;5038722;28;45330;-73
2024/01/12 01:32:32;;;;;;;;;19.75;19.00;;;;;-144.62;100.00;60556.56;5041362;28;45271;-73
2024/01/12 01:34:58;;;;;;;;;32.00;25.00;;;;;-144.62;100.00;60556.56;5038957;27;45593;-73
2024/01/12 01:37:23;;;;;;;;;31.25;28.50;;;;;-144.62;100.00;60556.56;5041064;28;46269;-72
2024/01/12 01:39:48;;;;;;;;;41.75;30.25;;;;;-144.62;100.00;60556.56;5036988;28;46158;-73
2024/01/12 01:42:14;;;;;;;;;38.75;27.25;;;;;-144.62;100.00;60556.56;5040258;28;45410;-73
2024/01/12 01:44:39;;;;;;;;;31.75;28.50;;;;;-144.62;100.00;60556.56;5051760;28;45375;-73
2024/01/12 01:47:05;;;;;;;;;26.75;23.00;;;;;-144.62;100.00;60556.56;5040598;28;45645;-73
2024/01/12 01:49:30;;;;;;;;;27.00;24.00;;;;;-144.62;100.00;60556.56;5038018;28;46038;-73
2024/01/12 01:51:56;;;;;;;;;20.75;20.25;;;;;-144.62;100.00;60556.56;5037570;28;45672;-73
2024/01/12 01:54:21;;;;;;;;;24.25;20.75;;;;;-144.62;100.00;60556.56;5040348;28;45560;-73
2024/01/12 01:56:47;;;;;;;;;28.25;23.25;;;;;-144.62;100.00;60556.56;5039392;28;46094;-73
2024/01/12 01:59:15;;;;;;;;;32.75;26.25;;;;;-144.62;100.00;60556.56;5040807;28;45375;-73
2024/01/12 02:01:41;;;;;;;;;27.50;23.50;;;;;-144.62;100.00;60556.56;5037666;28;45319;-73
2024/01/12 02:04:07;;;;;;;;;26.00;21.00;;;;;-144.62;100.00;60556.56;5040958;28;45281;-73
2024/01/12 02:06:33;;;;;;;;;26.75;21.25;;;;;-144.62;100.00;60556.56;5036354;28;46533;-73
2024/01/12 02:08:59;;;;;;;;;29.75;26.00;;;;;-144.62;100.00;60556.56;5036181;27;45788;-73
2024/01/12 02:11:25;;;;;;;;;24.25;23.25;;;;;-144.62;100.00;60556.56;5036893;28;45547;-73
2024/01/12 02:13:50;;;;;;;;;28.50;22.00;;;;;-144.62;100.00;60556.56;5036705;27;45430;-73
2024/01/12 02:16:17;;;;;;;;;27.75;24.00;;;;;-144.62;100.00;60556.56;5033584;28;47114;-73
2024/01/12 02:18:43;;;;;;;;;32.00;26.00;;;;;-144.62;100.00;60556.56;5040766;28;45452;-73
2024/01/12 02:21:08;;;;;;;;;21.50;17.75;;;;;-144.62;100.00;60556.56;5037629;28;45629;-73
2024/01/12 02:23:33;;;;;;;;;29.50;24.75;;;;;-144.62;100.00;60556.56;5039891;28;45613;-72
2024/01/12 02:25:59;;;;;;;;;28.25;23.75;;;;;-144.62;100.00;60556.56;5035445;28;46277;-73
2024/01/12 02:28:25;;;;;;;;;27.75;22.75;;;;;-144.62;100.00;60556.56;5035982;28;45332;-73
2024/01/12 02:30:51;;;;;;;;;21.25;19.00;;;;;-144.62;100.00;60556.56;5033479;28;45411;-73
2024/01/12 02:33:16;;;;;;;;;23.00;19.00;;;;;-144.62;100.00;60556.56;5040603;27;45208;-73
2024/01/12 02:35:41;;;;;;;;;29.25;24.00;;;;;-144.62;100.00;60556.56;5034258;28;46890;-73
2024/01/12 02:38:07;;;;;;;;;32.25;24.75;;;;;-144.62;100.00;60556.56;5039988;28;46892;-73
2024/01/12 02:40:32;;;;;;;;;26.75;23.00;;;;;-144.62;100.00;60556.56;5037284;28;45346;-73
2024/01/12 02:42:57;;;;;;;;;29.25;25.00;;;;;-144.62;100.00;60556.56;5039443;28;45333;-73
2024/01/12 02:45:22;;;;;;;;;31.50;28.75;;;;;-144.62;100.00;60556.56;5035929;27;46838;-73
2024/01/12 02:47:48;;;;;;;;;26.50;17.25;;;;;-144.62;100.00;60556.56;5037799;27;54563;-73
2024/01/12 02:50:13;;;;;;;;;24.50;22.50;;;;;-144.62;100.00;60556.56;5038436;28;45479;-73
2024/01/12 02:52:39;;;;;;;;;40.00;32.75;;;;;-144.62;100.00;60556.56;5039790;27;45463;-73
2024/01/12 02:55:05;;;;;;;;;34.00;24.00;;;;;-144.62;100.00;60556.56;5035856;28;46185;-73
2024/01/12 02:57:31;;;;;;;;;34.25;29.75;;;;;-144.62;100.00;60556.56;5037955;28;45331;-73
2024/01/12 02:59:56;;;;;;;;;36.50;29.25;;;;;-144.62;100.00;60556.56;5035372;28;45489;-73
2024/01/12 03:02:22;;;;;;;;;31.00;24.00;;;;;-144.62;100.00;60556.56;5040439;28;45295;-73
2024/01/12 03:04:47;;;;;;;;;26.50;24.50;;;;;-144.62;100.00;60556.56;5036207;28;45403;-73
2024/01/12 03:07:13;;;;;;;;;35.00;28.00;;;;;-144.62;100.00;60556.56;5037080;28;51943;-73
2024/01/12 03:09:39;;;;;;;;;41.50;35.75;;;;;-144.62;100.00;60556.56;5037808;27;45412;-73
2024/01/12 03:12:04;;;;;;;;;38.75;38.25;;;;;-144.62;100.00;60556.56;5039449;28;45346;-73
2024/01/12 03:14:29;;;;;;;;;44.50;35.25;;;;;-144.62;100.00;60556.56;5036672;28;47103;-73
2024/01/12 03:16:55;;;;;;;;;43.00;32.50;;;;;-144.62;100.00;60556.56;5036437;27;45318;-73
2024/01/12 03:19:20;;;;;;;;;45.25;36.25;;;;;-144.62;100.00;60556.56;5039415;28;45293;-73
2024/01/12 03:21:45;;;;;;;;;38.50;33.25;;;;;-144.62;100.00;60556.56;5037244;28;45694;-73
2024/01/12 03:24:11;;;;;;;;;45.00;35.75;;;;;-144.62;100.00;60556.56;5040065;28;46478;-73
2024/01/12 03:26:37;;;;;;;;;47.25;35.25;;;;;-144.62;100.00;60556.56;5033631;28;50493;-72
2024/01/12 03:29:03;;;;;;;;;45.25;36.25;;;;;-144.62;100.00;60556.56;5040008;28;45333;-72
2024/01/12 03:31:28;;;;;;;;;47.75;37.00;;;;;-144.62;100.00;60556.56;5036849;28;45336;-73
2024/01/12 03:33:53;;;;;;;;;44.00;33.00;;;;;-144.62;100.00;60556.56;5039852;28;45457;-72
2024/01/12 03:36:19;;;;;;;;;44.50;36.75;;;;;-144.62;100.00;60556.56;5035731;28;45367;-73
2024/01/12 03:38:45;;;;;;;;;36.25;32.00;;;;;-144.62;100.00;60556.56;5039777;27;45254;-73
2024/01/12 03:41:10;;;;;;;;;57.50;43.00;;;;;-144.62;100.00;60556.56;5033422;28;45351;-72
2024/01/12 03:43:35;;;;;;;;;49.00;40.75;;;;;-144.62;100.00;60556.56;5033638;28;47406;-73
2024/01/12 03:46:01;;;;;;;;;48.00;40.00;;;;;-144.62;100.00;60556.56;5031819;28;49226;-73
2024/01/12 03:48:27;;;;;;;;;52.75;40.50;;;;;-144.62;100.00;60556.56;5039824;28;45302;-73
2024/01/12 03:50:52;;;;;;;;;45.00;35.50;;;;;-144.62;100.00;60556.56;5035427;28;45685;-73
2024/01/12 03:53:18;;;;;;;;;53.75;37.50;;;;;-144.62;100.00;60556.56;5039108;27;47621;-73
2024/01/12 03:55:43;;;;;;;;;53.50;44.75;;;;;-144.62;100.00;60556.56;5037078;28;45220;-73
2024/01/12 03:58:08;;;;;;;;;54.75;43.25;;;;;-144.62;100.00;60556.56;5039116;28;47186;-73
2024/01/12 04:00:34;;;;;;;;;55.00;40.75;;;;;-144.62;100.00;60556.56;5034960;28;45372;-73
2024/01/12 04:02:59;;;;;;;;;50.25;38.50;;;;;-144.62;100.00;60556.56;5039190;28;45548;-73
2024/01/12 04:05:24;;;;;;;;;51.00;42.00;;;;;-144.62;100.00;60556.56;5033154;28;45470;-73
2024/01/12 04:07:49;;;;;;;;;49.50;41.25;;;;;-144.62;100.00;60556.56;5039323;28;45183;-73
2024/01/12 04:10:15;;;;;;;;;50.50;42.00;;;;;-144.62;100.00;60556.56;5034794;28;45332;-73
2024/01/12 04:12:40;;;;;;;;;48.00;40.00;;;;;-144.62;100.00;60556.56;5037686;28;46512;-73
2024/01/12 04:15:08;;;;;;;;;58.25;40.25;;;;;-144.62;100.00;60556.56;5036832;27;50811;-73
2024/01/12 04:17:34;;;;;;;;;60.25;41.25;;;;;-144.62;100.00;60556.56;5048709;28;45442;-74
2024/01/12 04:19:59;;;;;;;;;52.00;43.00;;;;;-144.62;100.00;60556.56;5038805;28;45502;-73
2024/01/12 04:22:24;;;;;;;;;61.50;46.25;;;;;-144.62;100.00;60556.56;5040603;28;46569;-73
2024/01/12 04:24:50;;;;;;;;;59.50;45.25;;;;;-144.62;100.00;60556.56;5041340;27;45547;-73
2024/01/12 04:27:15;;;;;;;;;54.75;39.75;;;;;-144.62;100.00;60556.56;5036267;28;45315;-73
2024/01/12 04:29:40;;;;;;;;;59.00;45.25;;;;;-144.62;100.00;60556.56;5041057;28;45442;-73
2024/01/12 04:32:06;;;;;;;;;48.75;42.00;;;;;-144.62;100.00;60556.56;5041570;28;45417;-73
2024/01/12 04:34:34;;;;;;;;;65.00;48.50;;;;;-144.62;100.00;60556.56;5031589;28;45450;-73
2024/01/12 04:36:59;;;;;;;;;58.75;47.00;;;;;-144.62;100.00;60556.56;5039400;28;45440;-73
2024/01/12 04:39:25;;;;;;;;;61.25;49.25;;;;;-144.62;100.00;60556.56;5043079;28;45253;-73
2024/01/12 04:41:50;;;;;;;;;56.50;42.50;;;;;-144.62;100.00;60556.56;5039334;28;50176;-73
2024/01/12 04:44:15;;;;;;;;;58.75;46.00;;;;;-144.62;100.00;60556.56;5041492;28;45347;-73
2024/01/12 04:46:42;;;;;;;;;53.75;45.50;;;;;-144.62;100.00;60556.56;5039045;28;45558;-73
2024/01/12 04:49:08;;;;;;;;;60.75;46.00;;;;;-144.62;100.00;60556.56;5040907;27;45229;-73
2024/01/12 04:51:33;;;;;;;;;54.50;42.75;;;;;-144.62;100.00;60556.56;5038441;28;46014;-73
2024/01/12 04:53:58;;;;;;;;;45.50;36.75;;;;;-144.62;100.00;60556.56;5038702;28;45378;-73
2024/01/12 04:56:24;;;;;;;;;60.25;43.00;;;;;-144.62;100.00;60556.56;5037994;28;45306;-73
2024/01/12 04:58:50;;;;;;;;;61.00;45.50;;;;;-144.62;100.00;60556.56;5050883;27;45352;-73
2024/01/12 05:01:16;;;;;;;;;52.75;41.50;;;;;-144.62;100.00;60556.56;5057655;27;45408;-73
2024/01/12 05:03:44;;;;;;;;;52.00;40.00;;;;;-144.62;100.00;60556.56;5039831;27;45343;-73
2024/01/12 05:06:10;;;;;;;;;52.00;42.50;;;;;-144.62;100.00;60556.56;5029610;27;45803;-73
2024/01/12 05:08:37;;;;;;;;;53.75;40.25;;;;;-144.62;100.00;60556.56;5042579;27;45511;-73
2024/01/12 05:11:02;;;;;;;;;46.75;38.25;;;;;-144.62;100.00;60556.56;5035161;28;47557;-73
2024/01/12 05:13:28;;;;;;;;;38.00;36.00;;;;;-144.62;100.00;60556.56;5039745;28;45265;-73
2024/01/12 05:15:54;;;;;;;;;44.25;33.50;;;;;-144.62;100.00;60556.56;5035532;28;45425;-73
2024/01/12 05:18:19;;;;;;;;;39.50;37.00;;;;;-144.62;100.00;60556.56;5040369;28;45528;-72
2024/01/12 05:20:44;;;;;;;;;43.25;38.00;;;;;-144.62;100.00;60556.56;5038447;28;48242;-72
2024/01/12 05:23:10;;;;;;;;;45.50;39.75;;;;;-144.62;100.00;60556.56;5041117;28;45344;-72
2024/01/12 05:25:35;;;;;;;;;49.00;37.50;;;;;-144.62;100.00;60556.56;5036854;28;45414;-72
2024/01/12 05:28:00;;;;;;;;;44.25;37.50;;;;;-144.62;100.00;60556.56;5040639;28;45292;-73
2024/01/12 05:30:26;;;;;;;;;43.00;37.50;;;;;-144.62;100.00;60556.56;5035018;28;46780;-73
2024/01/12 05:32:51;;;;;;;;;54.50;40.00;;;;;-144.62;100.00;60556.56;5038655;28;45337;-72
2024/01/12 05:35:16;;;;;;;;;45.00;36.25;;;;;-144.62;100.00;60556.56;5035878;28;45622;-72
2024/01/12 05:37:42;;;;;;;;;44.00;39.50;;;;;-144.62;100.00;60556.56;5039530;28;45411;-72
2024/01/12 05:40:08;;;;;;;;;51.50;36.50;;;;;-144.62;100.00;60556.56;5037122;28;45621;-74
2024/01/12 05:42:33;;;;;;;;;44.00;34.25;;;;;-144.62;100.00;60556.56;5030375;28;45376;-73
2024/01/12 05:44:59;;;;;;;;;53.75;35.25;;;;;-144.62;100.00;60556.56;5038650;28;46602;-73
2024/01/12 05:47:24;;;;;;;;;45.00;36.50;;;;;-144.62;100.00;60556.56;5039627;28;45398;-73
2024/01/12 05:49:49;;;;;;;;;60.50;41.50;;;;;-144.62;100.00;60556.56;5032931;27;47346;-72
2024/01/12 05:52:15;;;;;;;;;48.75;40.00;;;;;-144.62;100.00;60556.56;5035189;28;45363;-73
2024/01/12 05:54:40;;;;;;;;;49.50;35.00;;;;;-144.62;100.00;60556.56;5036980;28;45299;-72
2024/01/12 05:57:05;;;;;;;;;84.25;67.00;;;;;-144.62;100.00;60556.56;5040217;28;45406;-72
2024/01/12 05:59:32;;;;;;;;;48.50;37.50;;;;;-144.62;100.00;60556.56;5037601;28;45722;-72
2024/01/12 06:01:57;;;;;;;;;53.50;38.25;;;;;-144.62;100.00;60556.56;5035786;28;45610;-72
2024/01/12 06:04:23;;;;;;;;;48.00;37.00;;;;;-144.62;100.00;60556.56;5038577;28;45621;-72
2024/01/12 06:06:48;;;;;;;;;36.50;34.25;;;;;-144.62;100.00;60556.56;5035440;28;45543;-72
2024/01/12 06:09:13;;;;;;;;;55.00;41.00;;;;;-144.62;100.00;60556.56;5040351;27;45668;-72
2024/01/12 06:11:43;;;;;;;;;47.50;39.75;;;;;-144.62;100.00;60556.56;5037167;28;55460;-72
2024/01/12 06:14:08;;;;;;;;;38.50;33.75;;;;;-144.62;100.00;60556.56;5040040;28;45351;-72
2024/01/12 06:16:33;;;;;;;;;42.75;37.75;;;;;-144.62;100.00;60556.56;5037972;28;45324;-72
2024/01/12 06:18:59;;;;;;;;;57.25;39.25;;;;;-144.62;100.00;60556.56;5040182;28;45634;-72
2024/01/12 06:21:24;;;;;;;;;45.50;36.00;;;;;-144.62;100.00;60556.56;5036767;28;45349;-72
2024/01/12 06:23:49;;;;;;;;;40.75;36.75;;;;;-144.62;100.00;60556.56;5040181;28;45229;-72
2024/01/12 06:26:15;;;;;;;;;41.00;37.25;;;;;-144.62;100.00;60556.56;5034720;28;45540;-72
2024/01/12 06:28:40;;;;;;;;;59.00;40.00;;;;;-144.62;100.00;60556.56;5038248;28;47143;-72
2024/01/12 06:31:06;;;;;;;;;41.75;31.00;;;;;-144.62;100.00;60556.56;5036947;28;59878;-72
2024/01/12 06:33:33;;;;;;;;;53.25;41.25;;;;;-144.62;100.00;60556.56;5039983;28;45224;-72
2024/01/12 06:35:58;;;;;;;;;43.50;38.50;;;;;-144.62;100.00;60556.56;5034692;28;45493;-72
2024/01/12 06:38:23;;;;;;;;;50.25;39.25;;;;;-144.62;100.00;60556.56;5039012;28;45398;-72
2024/01/12 06:40:49;;;;;;;;;43.50;34.25;;;;;-144.62;100.00;60556.56;5035175;28;45450;-72
2024/01/12 06:43:14;;;;;;;;;46.75;39.00;;;;;-144.62;100.00;60556.56;5030710;27;46068;-71
2024/01/12 06:45:40;;;;;;;;;50.75;41.75;;;;;-144.62;100.00;60556.56;5034747;28;45471;-73
2024/01/12 06:48:05;;;;;;;;;58.50;39.25;;;;;-144.62;100.00;60556.56;5037282;28;47531;-72
2024/01/12 06:50:30;;;;;;;;;63.75;48.75;;;;;-144.62;100.00;60556.56;5036826;28;46397;-72
2024/01/12 06:52:56;;;;;;;;;55.25;39.25;;;;;-144.62;100.00;60556.56;5039004;28;45273;-72
2024/01/12 06:55:22;;;;;;;;;52.00;40.50;;;;;-144.62;100.00;60556.56;5034814;28;45269;-72
2024/01/12 06:57:47;;;;;;;;;54.00;40.50;;;;;-144.62;100.00;60556.56;5039246;28;46112;-73
2024/01/12 07:00:13;;;;;;;;;49.00;37.75;;;;;-144.62;100.00;60556.56;5035973;28;45453;-73
2024/01/12 07:02:38;;;;;;;;;48.25;40.00;;;;;-144.62;100.00;60556.56;5039729;28;45410;-73
2024/01/12 07:05:04;;;;;;;;;55.50;38.25;;;;;-144.62;100.00;60556.56;5030010;28;45222;-72
2024/01/12 07:07:29;;;;;;;;;52.50;41.50;;;;;-144.62;100.00;60556.56;5039472;28;45315;-73
2024/01/12 07:09:54;;;;;;;;;52.75;41.75;;;;;-144.62;100.00;60556.56;5036808;27;45491;-72
2024/01/12 07:12:20;;;;;;;;;52.25;41.00;;;;;-144.62;100.00;60556.56;5038179;28;52671;-73
2024/01/12 07:14:45;;;;;;;;;54.75;43.00;;;;;-144.62;100.00;60556.56;5036163;27;45424;-73
2024/01/12 07:17:10;;;;;;;;;58.50;41.50;;;;;-144.62;100.00;60556.56;5035193;27;46869;-73
2024/01/12 07:19:36;;;;;;;;;49.75;35.75;;;;;-144.62;100.00;60556.56;5037256;28;45257;-74
2024/01/12 07:22:02;;;;;;;;;54.50;40.75;;;;;-144.62;100.00;60556.56;5037122;28;45343;-74
2024/01/12 07:24:27;;;;;;;;;64.50;45.50;;;;;-144.62;100.00;60556.56;5034214;28;45553;-74
2024/01/12 07:26:52;;;;;;;;;61.00;45.00;;;;;-144.62;100.00;60556.56;5055304;27;46770;-74
2024/01/12 07:29:22;;;;;;;;;56.00;41.75;;;;;-144.62;100.00;60556.56;5033678;28;45308;-73
2024/01/12 07:31:48;;;;;;;;;50.50;41.00;;;;;-144.62;100.00;60556.56;5032735;28;45382;-75
2024/01/12 07:34:13;;;;;;;;;44.25;38.50;;;;;-144.62;100.00;60556.56;5034482;28;46675;-74
2024/01/12 07:36:39;;;;;;;;;40.50;37.25;;;;;-144.62;100.00;60556.56;5033609;27;47229;-74
2024/01/12 07:39:04;;;;;;;;;51.75;37.50;;;;;-144.62;100.00;60556.56;5038729;28;45239;-75
2024/01/12 07:41:30;;;;;;;;;59.25;38.50;;;;;-144.62;100.00;60556.56;5048576;28;45399;-76
2024/01/12 07:43:55;;;;;;;;;46.50;36.50;;;;;-144.62;100.00;60556.56;5038748;28;45213;-75
2024/01/12 07:46:20;;;;;;;;;34.50;26.50;;;;;-144.62;100.00;60556.56;5035256;28;52140;-76
2024/01/12 07:48:50;;;;;;;;;46.25;37.25;;;;;-144.62;100.00;60556.56;5034285;28;46383;-74
2024/01/12 07:51:16;;;;;;;;;40.25;35.50;;;;;-144.62;100.00;60556.56;5038517;28;45281;-75
2024/01/12 07:53:42;;;;;;;;;36.25;29.75;;;;;-144.62;100.00;60556.56;5042554;27;45298;-75
2024/01/12 07:56:07;;;;;;;;;27.50;23.00;;;;;-144.62;100.00;60556.56;5033259;27;46177;-76
2024/01/12 07:58:33;;;;;;;;;31.25;28.75;;;;;-144.62;100.00;60556.56;5035195;28;45424;-75
2024/01/12 08:00:58;;;;;;;;;34.50;29.50;;;;;-144.62;100.00;60556.56;5039812;27;45431;-75
2024/01/12 08:03:23;;;;;;;;;33.25;26.50;;;;;-144.62;100.00;60556.56;5042219;28;45466;-74
2024/01/12 08:05:49;;;;;;;;;30.25;26.25;;;;;-144.62;100.00;60556.56;5035771;28;46731;-76
2024/01/12 08:08:14;;;;;;;;;35.25;30.50;;;;;-144.62;100.00;60556.56;5040395;27;45344;-74
2024/01/12 08:10:40;;;;;;;;;35.75;29.00;;;;;-144.62;100.00;60556.56;5035467;27;45167;-74
2024/01/12 08:13:06;;;;;;;;;41.00;30.50;;;;;-144.62;100.00;60556.56;5042020;28;45236;-74
2024/01/12 08:15:32;;;;;;;;;32.50;29.00;;;;;-144.62;100.00;60556.56;5034733;28;45509;-75
2024/01/12 08:17:57;;;;;;;;;42.75;31.75;;;;;-144.62;100.00;60556.56;5042118;27;45403;-76
2024/01/12 08:20:23;;;;;;;;;42.50;32.00;;;;;-144.62;100.00;60556.56;5033574;28;45527;-76
2024/01/12 08:22:48;;;;;;;;;37.50;30.50;;;;;-144.62;100.00;60556.56;5036298;28;45562;-75
2024/01/12 08:25:14;;;;;;;;;46.50;31.00;;;;;-144.62;100.00;60556.56;5030367;28;46406;-74
2024/01/12 08:27:39;;;;;;;;;36.00;32.25;;;;;-144.62;100.00;60556.56;5041844;28;45327;-74
2024/01/12 08:30:07;;;;;;;;;40.00;31.75;;;;;-144.62;100.00;60556.56;5038722;27;45486;-76
2024/01/12 08:32:32;;;;;;;;;31.50;29.75;;;;;-144.62;100.00;60556.56;5042166;28;45257;-75
2024/01/12 08:34:58;;;;;;;;;46.75;32.25;;;;;-144.62;100.00;60556.56;5037766;28;45516;-75
2024/01/12 08:37:23;;;;;;;;;35.00;28.00;;;;;-144.62;100.00;60556.56;5037760;28;45274;-75
2024/01/12 08:39:48;;;;;;;;;43.25;34.75;;;;;-144.62;100.00;60556.56;5039787;28;45597;-74
2024/01/12 08:42:14;;;;;;;;;43.00;35.50;;;;;-144.62;100.00;60556.56;5040054;28;45406;-76
2024/01/12 08:44:39;;;;;;;;;38.00;32.50;;;;;-144.62;100.00;60556.56;5038014;28;46952;-74
2024/01/12 08:47:05;;;;;;;;;33.50;24.25;;;;;-144.62;100.00;60556.56;5041223;28;45509;-75
2024/01/12 08:49:30;;;;;;;;;33.00;30.75;;;;;-144.62;100.00;60556.56;5040658;28;45336;-73
2024/01/12 08:51:55;;;;;;;;;36.25;29.00;;;;;-144.62;100.00;60556.56;5039460;28;45413;-75
2024/01/12 08:54:21;;;;;;;;;31.75;30.00;;;;;-144.62;100.00;60556.56;5039330;28;55458;-75
2024/01/12 08:56:46;;;;;;;;;30.75;27.25;;;;;-144.62;100.00;60556.56;5035423;28;45336;-76
2024/01/12 08:59:11;;;;;;;;;39.25;24.50;;;;;-144.62;100.00;60556.56;5041153;27;45469;-76
2024/01/12 09:01:37;;;;;;;;;36.50;31.75;;;;;-144.62;100.00;60556.56;5038326;28;45406;-75
2024/01/12 09:04:02;;;;;;;;;37.50;26.50;;;;;-144.62;100.00;60556.56;5040827;28;56748;-76
2024/01/12 09:06:28;;;;;;;;;36.00;30.75;;;;;-144.62;100.00;60556.56;5037643;28;45328;-75
2024/01/12 09:08:54;;;;;;;;;31.50;29.00;;;;;-144.62;100.00;60556.56;5041060;27;45427;-75
2024/01/12 09:11:22;;;;;;;;;40.00;35.00;;;;;-144.62;100.00;60556.56;5038179;27;45762;-75
2024/01/12 09:13:48;;;;;;;;;44.75;36.25;;;;;-144.62;100.00;60556.56;5040783;28;45318;-75
2024/01/12 09:16:14;;;;;;;;;36.50;31.50;;;;;-144.62;100.00;60556.56;5036794;28;45427;-75
2024/01/12 09:18:42;;;;;;;;;42.25;36.75;;;;;-144.62;100.00;60556.56;5043787;28;45252;-75
2024/01/12 09:21:08;;;;;;;;;39.75;35.75;;;;;-144.62;100.00;60556.56;5031796;28;45568;-75
2024/01/12 09:23:33;;;;;;;;;35.50;26.50;;;;;-144.62;100.00;60556.56;5040922;28;45311;-76
2024/01/12 09:25:59;;;;;;;;;43.00;36.00;;;;;-144.62;100.00;60556.56;5037671;28;45447;-75
2024/01/12 09:28:24;;;;;;;;;43.75;33.75;;;;;-144.62;100.00;60556.56;5036075;27;45373;-78
2024/01/12 09:30:49;;;;;;;;;41.25;33.00;;;;;-144.62;100.00;60556.56;5036838;28;45432;-75
2024/01/12 09:33:15;;;;;;;;;44.25;33.00;;;;;-144.62;100.00;60556.56;5039338;28;45429;-77
2024/01/12 09:35:40;;;;;;;;;46.75;35.75;;;;;-144.62;100.00;60556.56;5036356;28;45433;-75
2024/01/12 09:38:06;;;;;;;;;47.00;37.50;;;;;-144.62;100.00;60556.56;5040662;28;45509;-74
2024/01/12 09:40:32;;;;;;;;;48.75;41.00;;;;;-144.62;100.00;60556.56;5036639;28;45310;-74
2024/01/12 09:43:00;;;;;;;;;46.00;37.25;;;;;-144.62;100.00;60556.56;5039125;28;46677;-75
2024/01/12 09:45:25;;;;;;;;;55.50;42.50;;;;;-144.62;100.00;60556.56;5038226;28;45379;-74
2024/01/12 09:47:51;;;;;;;;;47.25;41.25;;;;;-144.62;100.00;60556.56;5039718;28;45470;-75
2024/01/12 09:50:21;;;;;;;;;49.50;39.00;;;;;-144.62;100.00;60556.56;5039101;28;45308;-75
2024/01/12 09:52:50;;;;;;;;;48.00;37.25;;;;;-144.62;100.00;60556.56;5040188;28;45558;-75
2024/01/12 09:55:15;;;;;;;;;40.50;38.50;;;;;-144.62;100.00;60556.56;5034881;28;45405;-74
2024/01/12 09:57:44;;;;;;;;;52.00;41.00;;;;;-144.62;100.00;60556.56;5035123;28;45566;-75
2024/01/12 10:00:13;;;;;;;;;49.50;41.25;;;;;-144.62;100.00;60556.56;5037057;28;45325;-74
2024/01/12 10:02:39;;;;;;;;;55.50;38.75;;;;;-144.62;100.00;60556.56;5021961;28;48344;-74
2024/01/12 10:05:04;;;;;;;;;56.25;43.00;;;;;-144.62;100.00;60556.56;5035243;27;45346;-75
2024/01/12 10:07:30;;;;;;;;;46.75;41.50;;;;;-144.62;100.00;60556.56;5039538;28;45285;-76
2024/01/12 10:09:55;;;;;;;;;54.75;40.50;;;;;-144.62;100.00;60556.56;5038991;27;45305;-74
2024/01/12 10:12:21;;;;;;;;;44.00;39.00;;;;;-144.62;100.00;60556.56;5038721;28;46078;-75
2024/01/12 10:14:57;;;;;;;;;49.50;41.50;;;;;-144.62;100.00;60556.56;5033283;28;45371;-76
2024/01/12 10:17:22;;;;;;;;;54.75;41.75;;;;;-144.62;100.00;60556.56;5034212;28;45427;-75
2024/01/12 10:19:50;;;;;;;;;52.50;41.00;;;;;-144.62;100.00;60556.56;5038752;27;45946;-75
2024/01/12 10:22:15;;;;;;;;;55.50;42.25;;;;;-144.62;100.00;60556.56;5038768;27;45485;-75
2024/01/12 10:24:40;;;;;;;;;56.75;43.00;;;;;-144.62;100.00;60556.56;5038275;27;45365;-74
2024/01/12 10:27:06;;;;;;;;;49.75;42.25;;;;;-144.62;100.00;60556.56;5036162;28;45616;-75
2024/01/12 10:29:31;;;;;;;;;60.50;45.00;;;;;-144.62;100.00;60556.56;5039234;28;46682;-76
2024/01/12 10:31:56;;;;;;;;;60.00;41.25;;;;;-144.62;100.00;60556.56;5037611;28;47348;-76
2024/01/12 10:34:24;;;;;;;;;54.75;44.75;;;;;-144.62;100.00;60556.56;5039255;27;45412;-74
2024/01/12 10:36:56;;;;;;;;;55.25;42.00;;;;;-144.62;100.00;60556.56;5036105;28;45350;-75
2024/01/12 10:39:22;;;;;;;;;44.25;38.75;;;;;-144.62;100.00;60556.56;5039861;28;45445;-75
2024/01/12 10:41:50;;;;;;;;;50.50;42.50;;;;;-144.62;100.00;60556.56;5035487;28;46964;-76
2024/01/12 10:44:21;;;;;;;;;46.75;40.00;;;;;-144.62;100.00;60556.56;5039442;28;46507;-75
2024/01/12 10:46:47;;;;;;;;;60.00;43.75;;;;;-144.62;100.00;60556.56;5032937;27;45365;-74